Latest Weather Observations for Jandakot

IDW60901

Issued at 3:41 pm WST Sunday 15 December 2019 (issued every 10 minutes, with the page automatically refreshed every 10 minutes)

About weather observations | Map of Perth area stations | Latest observations for Perth area | Other Formats
Station Details ID: 009172 Name: JANDAKOT AERO Lat: -32.10 Lon: 115.88 Height: 30.0 m
Data from the previous 72 hours. | See also: Recent months at Jandakot
Date/Time
WST
Temp
°C
App
Temp
°C
Dew
Point
°C
Rel
Hum
%
Delta-T
°C
Wind Press
QNH
hPa
Press
MSL
hPa
Rain since
9am
mm
Dir  Spd
km/h
Gust
km/h
Spd
kts
Gust
kts
15/03:30pm 35.6 29.0 7.6 18 15.7 SW 32 41 17 22 1004.2 1004.0 0.0
15/03:00pm 36.0 29.6 8.7 19 15.6 SW 32 43 17 23 1004.3 1004.1 0.0
15/02:30pm 37.2 30.5 8.1 17 16.5 WSW 33 44 18 24 1004.4 1004.2 0.0
15/02:00pm 38.3 31.4 7.1 15 17.6 WSW 33 43 18 23 1004.3 1004.1 0.0
15/01:30pm 38.5 31.6 2.8 11 18.8 WSW 28 35 15 19 1004.4 1004.2 0.0
15/01:00pm 38.6 34.3 10.9 19 16.5 WSW 24 28 13 15 1004.6 1004.4 0.0
15/12:30pm 37.8 33.1 9.4 18 16.5 WSW 24 32 13 17 1004.8 1004.6 0.0
15/12:00pm 37.3 33.1 9.8 19 16.1 W 22 28 12 15 1005.0 1004.8 0.0
15/11:30am 37.7 34.0 10.1 19 16.2 WSW 20 28 11 15 1005.2 1005.0 0.0
15/11:00am 37.6 35.5 6.6 15 17.3 WSW 7 13 4 7 1005.4 1005.2 0.0
15/10:30am 36.4 34.7 7.4 17 16.2 WNW 6 13 3 7 1005.6 1005.4 0.0
15/10:00am 35.4 33.9 8.3 19 15.4 NE 6 17 3 9 1005.6 1005.4 0.0
15/09:30am 34.3 31.0 8.1 20 14.7 NE 15 20 8 11 1005.9 1005.7 0.0
15/09:00am 33.5 29.3 8.2 21 14.2 NE 20 28 11 15 1005.9 1005.7 0.0
15/08:30am 33.4 29.9 7.4 20 14.3 ENE 15 22 8 12 1006.0 1005.8 0.0
15/08:00am 31.2 28.5 8.8 25 12.5 ESE 13 17 7 9 1006.4 1006.3 0.0
15/07:30am 29.2 26.6 7.7 26 11.7 SE 11 15 6 8 1006.7 1006.6 0.0
15/07:00am 27.6 24.4 6.9 27 11.0 ESE 13 19 7 10 1006.7 1006.6 0.0
15/06:30am 26.5 23.6 6.5 28 10.5 SE 11 19 6 10 1006.7 1006.6 0.0
15/06:00am 25.1 21.4 6.3 30 9.8 ESE 15 20 8 11 1006.9 1006.8 0.0
15/05:30am 24.5 20.2 5.3 29 9.7 ESE 17 24 9 13 1006.7 1006.6 0.0
15/05:00am 24.9 19.6 5.2 28 10.0 ESE 22 30 12 16 1006.8 1006.7 0.0
15/04:30am 25.4 20.7 5.1 27 10.3 ESE 19 24 10 13 1006.9 1006.8 0.0
15/04:00am 26.0 21.1 5.0 26 10.7 ESE 20 28 11 15 1006.9 1006.8 0.0
15/03:30am 25.5 21.5 5.1 27 10.4 ESE 15 24 8 13 1007.1 1007.0 0.0
15/03:00am 26.7 22.1 5.6 26 10.9 ESE 19 28 10 15 1007.2 1007.1 0.0
15/02:30am 26.9 22.3 6.3 27 10.8 ESE 20 26 11 14 1007.4 1007.3 0.0
15/02:00am 27.4 22.1 6.8 27 10.9 ESE 24 35 13 19 1007.5 1007.4 0.0
15/01:30am 28.1 22.8 6.8 26 11.3 ESE 24 32 13 17 1007.7 1007.6 0.0
15/01:00am 25.5 22.0 7.1 31 9.7 ESE 15 22 8 12 1007.8 1007.7 0.0
15/12:30am 23.7 23.4 8.6 38 8.1 CALM 0 0 0 0 1008.0 1007.9 0.0
15/12:00am 24.0 21.9 8.4 37 8.3 SSW 9 13 5 7 1007.9 1007.8 0.0
 
Date/Time
WST
Temp
°C
App
Temp
°C
Dew
Point
°C
Rel
Hum
%
Delta-T
°C
Wind Press
QNH
hPa
Press
MSL
hPa
Rain since
9am
mm
Dir  Spd
km/h
Gust
km/h
Spd
kts
Gust
kts
14/11:30pm 24.8 22.0 8.7 36 8.7 S 13 17 7 9 1008.1 1008.0 0.0
14/11:00pm 24.9 22.5 8.8 36 8.7 S 11 13 6 7 1008.2 1008.1 0.0
14/10:30pm 26.1 22.9 8.6 33 9.5 S 15 20 8 11 1008.6 1008.5 0.0
14/10:00pm 26.9 23.7 8.4 31 10.1 S 15 19 8 10 1008.5 1008.4 0.0
14/09:30pm 27.7 24.8 8.1 29 10.6 S 13 19 7 10 1008.6 1008.5 0.0
14/09:00pm 28.6 24.9 7.8 27 11.3 S 17 20 9 11 1008.7 1008.6 0.0
14/08:30pm 29.3 25.0 9.4 29 11.1 SSW 22 30 12 16 1008.6 1008.5 0.0
14/08:00pm 30.4 27.0 9.3 27 11.8 SSW 17 24 9 13 1008.5 1008.4 0.0
14/07:30pm 32.1 28.5 8.4 23 13.2 SW 17 22 9 12 1008.3 1008.2 0.0
14/07:00pm 33.5 29.3 8.2 21 14.2 SW 20 26 11 14 1008.1 1008.0 0.0
14/06:30pm 34.9 30.8 7.9 19 15.1 SSW 19 26 10 14 1007.9 1007.8 0.0
14/06:00pm 35.5 29.6 5.8 16 16.2 SSW 26 33 14 18 1007.7 1007.6 0.0
14/05:30pm 36.3 30.0 5.5 15 16.7 SW 28 35 15 19 1007.7 1007.6 0.0
14/05:00pm 37.2 31.2 3.1 12 18.0 SSW 24 33 13 18 1007.7 1007.6 0.0
14/04:30pm 37.6 31.0 2.1 11 18.4 SW 26 33 14 18 1008.0 1007.9 0.0
14/04:00pm 38.1 31.7 1.2 10 19.0 SW 24 33 13 18 1008.1 1008.0 0.0
14/03:30pm 38.3 31.4 -0.1 9 19.3 SW 26 33 14 18 1008.5 1008.4 0.0
14/03:00pm 37.6 31.2 3.4 12 18.1 SW 26 32 14 17 1008.7 1008.6 0.0
14/02:30pm 37.5 30.9 2.1 11 18.4 SW 26 37 14 20 1009.0 1008.9 0.0
14/02:00pm 37.8 30.8 -0.5 9 19.1 WSW 26 33 14 18 1009.3 1009.2 0.0
14/01:30pm 39.1 32.1 1.9 10 19.4 WSW 28 33 15 18 1009.5 1009.4 0.0
14/01:00pm 39.2 32.8 3.4 11 19.2 WSW 26 35 14 19 1009.6 1009.5 0.0
14/12:30pm 38.7 34.1 6.4 14 18.0 WSW 20 28 11 15 1010.0 1009.9 0.0
14/12:00pm 38.2 34.7 8.9 17 16.9 WSW 17 20 9 11 1010.2 1010.1 0.0
14/11:30am 37.4 33.6 9.9 19 16.1 WSW 20 30 11 16 1010.5 1010.4 0.0
14/11:00am 38.4 34.2 4.0 12 18.5 NW 15 24 8 13 1010.8 1010.7 0.0
14/10:30am 38.1 34.7 6.0 14 17.7 N 13 24 7 13 1010.9 1010.8 0.0
14/10:00am 36.9 32.2 6.0 15 17.0 NNE 20 26 11 14 1011.2 1011.1 0.0
14/09:30am 37.0 32.3 5.1 14 17.3 NNE 19 26 10 14 1011.1 1011.0 0.0
14/09:00am 34.6 30.8 6.0 17 15.5 NNE 15 20 8 11 1011.4 1011.3 0.0
14/08:30am 33.4 30.1 6.6 19 14.6 NE 13 19 7 10 1011.4 1011.3 0.0
14/08:00am 31.3 27.9 7.7 23 13.0 NE 15 17 8 9 1011.8 1011.7 0.0
14/07:30am 29.3 27.5 7.8 26 11.7 ENE 7 9 4 5 1011.9 1011.8 0.0
14/07:00am 28.0 25.7 7.3 27 11.1 E 9 11 5 6 1012.1 1012.0 0.0
14/06:30am 26.7 23.5 6.7 28 10.5 E 13 15 7 8 1012.3 1012.2 0.0
14/06:00am 25.1 21.7 5.8 29 9.9 ESE 13 17 7 9 1012.2 1012.1 0.0
14/05:30am 24.0 20.5 5.4 30 9.4 ESE 13 17 7 9 1012.1 1012.0 0.0
14/05:00am 23.9 21.5 5.3 30 9.4 ESE 7 11 4 6 1011.9 1011.8 0.0
14/04:30am 24.8 21.0 5.6 29 9.8 ESE 15 19 8 10 1011.7 1011.6 0.0
14/04:00am 25.3 21.8 5.5 28 10.1 E 13 17 7 9 1011.9 1011.8 0.0
14/03:30am 26.2 21.4 5.7 27 10.6 ESE 20 28 11 15 1012.1 1012.0 0.0
14/03:00am 25.7 22.7 5.8 28 10.2 E 11 19 6 10 1012.2 1012.1 0.0
14/02:30am 26.4 23.3 5.4 26 10.8 SE 11 17 6 9 1012.3 1012.2 0.0
14/02:00am 28.0 23.2 5.6 24 11.7 SE 20 24 11 13 1012.4 1012.3 0.0
14/01:30am 28.5 23.8 6.0 24 11.8 SE 20 28 11 15 1012.6 1012.5 0.0
14/01:00am 28.5 23.3 7.1 26 11.5 SE 24 30 13 16 1012.8 1012.7 0.0
14/12:30am 28.2 23.8 7.4 27 11.2 SE 20 30 11 16 1013.1 1013.0 0.0
14/12:00am 26.1 22.7 5.7 27 10.5 S 13 17 7 9 1013.6 1013.5 0.0
 
Date/Time
WST
Temp
°C
App
Temp
°C
Dew
Point
°C
Rel
Hum
%
Delta-T
°C
Wind Press
QNH
hPa
Press
MSL
hPa
Rain since
9am
mm
Dir  Spd
km/h
Gust
km/h
Spd
kts
Gust
kts
13/11:30pm 27.1 22.7 4.8 24 11.4 SSE 17 24 9 13 1013.8 1013.7 0.0
13/11:00pm 25.1 21.5 4.8 27 10.2 SSE 13 19 7 10 1014.1 1014.0 0.0
13/10:30pm 25.0 22.3 5.7 29 9.9 S 9 11 5 6 1014.2 1014.1 0.0
13/10:00pm 26.2 23.5 5.7 27 10.6 S 9 11 5 6 1014.5 1014.4 0.0
13/09:30pm 27.2 24.5 5.5 25 11.2 S 9 13 5 7 1014.6 1014.5 0.0
13/09:00pm 28.1 24.6 5.6 24 11.7 S 13 19 7 10 1014.6 1014.5 0.0
13/08:30pm 29.0 24.8 5.8 23 12.2 S 17 22 9 12 1014.4 1014.3 0.0
13/08:00pm 29.8 25.8 6.5 23 12.4 S 17 20 9 11 1014.2 1014.1 0.0
13/07:30pm 30.8 26.2 6.6 22 13.0 S 20 28 11 15 1014.1 1014.0 0.0
13/07:00pm 32.0 27.1 7.0 21 13.6 SSW 22 30 12 16 1013.7 1013.6 0.0
13/06:30pm 32.6 25.6 6.0 19 14.3 SSW 32 44 17 24 1013.6 1013.5 0.0
13/06:00pm 34.0 27.3 5.5 17 15.3 SSW 30 37 16 20 1013.3 1013.2 0.0
13/05:30pm 35.6 28.6 4.0 14 16.7 SW 30 41 16 22 1013.0 1012.9 0.0
13/05:00pm 36.5 30.6 5.7 15 16.8 SW 26 35 14 19 1012.9 1012.8 0.0
13/04:30pm 36.7 29.7 5.9 15 16.9 SW 32 39 17 21 1012.9 1012.8 0.0
13/04:00pm 36.9 29.5 5.0 14 17.3 SW 33 43 18 23 1013.0 1012.9 0.0
13/03:30pm 38.3 31.5 5.0 13 18.1 WSW 30 35 16 19 1013.2 1013.1 0.0
13/03:00pm 37.6 31.9 6.6 15 17.2 WSW 26 33 14 18 1013.5 1013.4 0.0
13/02:30pm 38.9 32.1 3.1 11 19.0 WSW 28 33 15 18 1013.7 1013.6 0.0
13/02:24pm 38.4 32.7 5.1 13 18.2 WSW 24 32 13 17 1013.7 1013.6 0.0
13/02:00pm 40.0 36.6 -0.5 8 20.5 NNW 7 13 4 7 1013.8 1013.7 0.0
13/01:30pm 38.9 34.3 -1.3 8 20.0 E 13 24 7 13 1014.2 1014.1 0.0
13/01:00pm 38.7 34.7 0.2 9 19.5 E 11 20 6 11 1014.5 1014.4 0.0
13/12:30pm 38.3 34.7 2.7 11 18.7 NE 11 19 6 10 1014.9 1014.8 0.0
13/12:00pm 38.1 34.2 1.2 10 18.9 NE 11 24 6 13 1015.3 1015.2 0.0
13/11:30am 37.4 33.1 3.2 12 18.0 NE 15 26 8 14 1015.6 1015.5 0.0
13/11:00am 37.3 32.2 4.3 13 17.7 NE 20 30 11 16 1016.0 1015.9 0.0
13/10:30am 36.8 29.9 2.8 12 17.8 NNE 28 39 15 21 1016.2 1016.1 0.0
13/10:00am 36.1 28.6 3.3 13 17.2 NNE 32 41 17 22 1016.4 1016.3 0.0
13/09:30am 34.9 27.2 3.5 14 16.4 NE 33 43 18 23 1016.4 1016.3 0.0
13/09:00am 33.8 27.8 5.4 17 15.2 NE 26 32 14 17 1016.5 1016.4 0.0
13/08:30am 32.2 26.5 4.9 18 14.4 NE 24 33 13 18 1016.8 1016.7 0.0
13/08:00am 31.3 25.6 4.9 19 13.8 NE 24 35 13 19 1016.8 1016.7 0.0
13/07:30am 30.5 24.3 4.3 19 13.5 NE 26 37 14 20 1016.7 1016.6 0.0
13/07:00am 29.8 24.9 5.1 21 12.9 NE 20 30 11 16 1016.6 1016.5 0.0
13/06:30am 28.6 23.6 4.8 22 12.2 NE 20 30 11 16 1016.4 1016.3 0.0
13/06:00am 27.4 23.0 4.5 23 11.6 NE 17 26 9 14 1016.2 1016.1 0.0
13/05:30am 26.2 21.3 4.1 24 11.1 ENE 19 22 10 12 1015.9 1015.8 0.0
13/05:00am 26.1 20.7 4.6 25 10.8 NE 22 33 12 18 1015.7 1015.6 0.0
13/04:30am 25.9 20.2 4.9 26 10.6 NE 24 32 13 17 1015.6 1015.5 0.0
13/04:00am 25.2 21.3 5.4 28 10.1 ENE 15 20 8 11 1015.5 1015.4 0.0
13/03:30am 26.6 22.0 5.5 26 10.9 ENE 19 26 10 14 1015.3 1015.2 0.0
13/03:00am 26.2 21.6 6.3 28 10.4 E 20 30 11 16 1015.2 1015.1 0.0
13/02:30am 26.7 21.6 6.2 27 10.7 E 22 33 12 18 1015.2 1015.1 0.0
13/02:00am 26.4 21.7 5.9 27 10.6 E 20 30 11 16 1015.2 1015.1 0.0
13/01:30am 26.4 21.2 5.4 26 10.8 E 22 30 12 16 1015.4 1015.3 0.0
13/01:00am 26.9 20.5 5.2 25 11.1 E 28 35 15 19 1015.7 1015.6 0.0
13/12:30am 27.5 21.7 4.5 23 11.7 E 24 32 13 17 1015.8 1015.7 0.0
13/12:00am 25.5 20.9 5.7 28 10.1 E 19 22 10 12 1015.9 1015.8 0.0
 
Date/Time
WST
Temp
°C
App
Temp
°C
Dew
Point
°C
Rel
Hum
%
Delta-T
°C
Wind Press
QNH
hPa
Press
MSL
hPa
Rain since
9am
mm
Dir  Spd
km/h
Gust
km/h
Spd
kts
Gust
kts
12/11:30pm 23.6 21.5 9.6 41 7.6 ESE 11 15 6 8 1016.1 1016.0 0.0
12/11:00pm 23.6 22.8 11.6 47 6.8 SSE 7 9 4 5 1016.2 1016.1 0.0
12/10:30pm 24.8 23.5 11.4 43 7.6 SSE 9 11 5 6 1016.3 1016.2 0.0
12/10:00pm 25.0 23.7 11.2 42 7.8 SSE 9 11 5 6 1016.4 1016.3 0.0
12/09:30pm 26.9 24.9 10.2 35 9.3 S 11 13 6 7 1016.4 1016.3 0.0
12/09:00pm 27.7 25.3 8.6 30 10.4 SSW 11 13 6 7 1016.3 1016.2 0.0
12/08:30pm 28.0 26.4 7.8 28 10.9 SE 6 7 3 4 1016.1 1016.0 0.0
12/08:00pm 29.8 27.3 6.5 23 12.4 SE 9 9 5 5 1015.8 1015.7 0.0
12/07:30pm 33.0 29.3 4.7 17 14.9 SSE 13 15 7 8 1015.7 1015.6 0.0
12/07:00pm 35.1 31.4 4.6 15 16.2 SSE 13 19 7 10 1015.6 1015.5 0.0
12/06:30pm 36.6 32.0 3.7 13 17.4 SE 17 20 9 11 1015.4 1015.3 0.0
12/06:00pm 37.0 33.8 7.0 16 16.7 SSE 13 20 7 11 1015.2 1015.1 0.0
12/05:30pm 37.3 33.4 7.3 16 16.8 SSW 17 24 9 13 1014.9 1014.8 0.0
12/05:00pm 37.4 34.0 9.1 18 16.3 SSW 17 22 9 12 1014.9 1014.8 0.0
12/04:30pm 37.9 33.4 2.4 11 18.5 S 15 22 8 12 1015.0 1014.9 0.0
12/04:00pm 38.2 34.8 3.8 12 18.4 E 11 19 6 10 1015.2 1015.1 0.0

Latest Capital City Observations: Canberra | Sydney | Melbourne | Brisbane | Adelaide | Perth | Hobart | Darwin

Other formats

Comma delimited format used in spreadsheet applications
http://www.bom.gov.au/fwo/IDW60901/IDW60901.94609.axf

JavaScript Object Notation format (JSON) in row-major order
http://www.bom.gov.au/fwo/IDW60901/IDW60901.94609.json

Data quality

Most of these data are generated automatically and are frequently updated. Quality checks on data are not normally performed. It is possible for incorrect values to appear. Refer to information at About Latest Weather Observations and please check the disclaimer before using these data.